| time (UTC) | temp F | wind direction | speed knots | gust knots | rain 1hr in | rain 24hr in | rain mn in | humidity % | barometer mb |
| 20260506043849 | 54 | 225 | 4.3 | 7.8 | 0.00 | 0.88 | 0.21 | 89 | 1004.7 |
| 20260506042831 | 54 | 225 | 4.3 | 7.8 | 0.00 | 0.88 | 0.21 | 89 | 1004.6 |
| 20260506041826 | 54 | 225 | 4.3 | 7.8 | 0.00 | 0.88 | 0.21 | 89 | 1004.6 |
| 20260506040826 | 54 | 225 | 3.5 | 7.8 | 0.00 | 0.88 | 0.21 | 89 | 1004.5 |
| 20260506035756 | 54 | 225 | 3.5 | 7.8 | 0.00 | 0.88 | 0.21 | 89 | 1004.4 |
| 20260506034752 | 54 | 248 | 4.3 | 8.7 | 0.00 | 0.88 | 0.21 | 89 | 1004.3 |
| 20260506032655 | 54 | 225 | 3.5 | 7.0 | 0.00 | 0.88 | 0.21 | 89 | 1004.4 |
| 20260506031628 | 54 | 203 | 4.3 | 8.7 | 0.01 | 0.88 | 0.21 | 89 | 1004.4 |
| 20260506030609 | 54 | 203 | 4.3 | 9.6 | 0.01 | 0.88 | 0.21 | 89 | 1004.5 |
| 20260506025543 | 54 | 203 | 5.2 | 10.4 | 0.01 | 0.88 | 0.21 | 89 | 1004.5 |
| 20260506024519 | 54 | 203 | 3.5 | 7.8 | 0.01 | 0.88 | 0.21 | 89 | 1004.6 |
| 20260506023454 | 54 | 203 | 5.2 | 10.4 | 0.01 | 0.88 | 0.21 | 89 | 1004.7 |
| 20260506022437 | 54 | 203 | 4.3 | 7.8 | 0.00 | 0.87 | 0.20 | 89 | 1004.8 |
| 20260506020355 | 54 | 203 | 4.3 | 8.7 | 0.00 | 0.87 | 0.20 | 89 | 1004.9 |
| 20260506015352 | 54 | 180 | 2.6 | 7.8 | 0.00 | 0.87 | 0.20 | 89 | 1004.9 |
| 20260506014328 | 54 | 158 | 2.6 | 5.2 | 0.00 | 0.87 | 0.20 | 89 | 1004.9 |
| 20260506013259 | 54 | 158 | 2.6 | 5.2 | 0.00 | 0.87 | 0.20 | 89 | 1005.0 |
| 20260506012227 | 54 | 158 | 2.6 | 6.1 | 0.00 | 0.87 | 0.20 | 89 | 1005.0 |
| 20260506011225 | 54 | 158 | 2.6 | 6.1 | 0.00 | 0.87 | 0.20 | 89 | 1005.1 |
| 20260506010200 | 54 | 158 | 2.6 | 6.1 | 0.00 | 0.87 | 0.20 | 89 | 1005.2 |
| 20260506005159 | 54 | 158 | 1.7 | 4.3 | 0.00 | 0.87 | 0.20 | 89 | 1005.3 |
| 20260506003104 | 54 | 158 | 1.7 | 2.6 | 0.00 | 0.87 | 0.20 | 89 | 1005.4 |
| 20260506002104 | 54 | 158 | 0.9 | 3.5 | 0.00 | 0.87 | 0.20 | 89 | 1005.5 |
| 20260506001028 | 54 | 158 | 1.7 | 4.3 | 0.00 | 0.87 | 0.20 | 89 | 1005.6 |
| 20260506000026 | 54 | 180 | 1.7 | 4.3 | 0.02 | 0.87 | 0.20 | 89 | 1005.8 |
| 20260505234949 | 54 | 180 | 1.7 | 5.2 | 0.05 | 0.87 | 0.20 | 89 | 1005.8 |
| 20260505233931 | 55 | 180 | 2.6 | 5.2 | 0.08 | 0.87 | 0.20 | 89 | 1005.9 |
| 20260505232921 | 55 | 180 | 3.5 | 7.0 | 0.10 | 0.87 | 0.20 | 89 | 1005.9 |
| 20260505231914 | 55 | 203 | 4.3 | 7.0 | 0.14 | 0.87 | 0.20 | 89 | 1006.0 |
| 20260505230900 | 55 | 203 | 3.5 | 7.0 | 0.15 | 0.85 | 0.18 | 89 | 1005.9 |
| 20260505225829 | 55 | 203 | 1.7 | 7.0 | 0.16 | 0.83 | 0.16 | 89 | 1006.1 |
| 20260505223801 | 55 | 203 | 0.0 | 2.6 | 0.18 | 0.79 | 0.12 | 89 | 1005.9 |
| 20260505222744 | 56 | 68 | 0.0 | 2.6 | 0.17 | 0.76 | 0.09 | 89 | 1005.8 |
| 20260505221713 | 56 | 203 | 0.0 | 0.0 | 0.12 | 0.69 | 0.02 | 89 | 1005.9 |
| 20260505220650 | 56 | 203 | 0.0 | 0.0 | 0.12 | 0.66 | 0.00 | 89 | 1006.3 |
| 20260505215614 | 55 | 203 | 0.0 | 0.0 | 0.12 | 0.63 | 0.63 | 89 | 1006.5 |
| 20260505213513 | 55 | 203 | 0.0 | 0.0 | 0.14 | 0.59 | 0.59 | 89 | 1007.0 |
| 20260505212456 | 55 | 203 | 0.0 | 0.0 | 0.36 | 0.57 | 0.57 | 89 | 1007.1 |
| 20260505211433 | 55 | 203 | 0.9 | 4.3 | 0.45 | 0.53 | 0.53 | 89 | 1007.3 |
| 20260505210422 | 56 | 203 | 3.5 | 7.8 | 0.46 | 0.51 | 0.51 | 88 | 1007.5 |
| 20260505205357 | 56 | 203 | 4.3 | 10.4 | 0.42 | 0.47 | 0.47 | 88 | 1007.5 |
| 20260505204331 | 57 | 203 | 6.1 | 14.8 | 0.37 | 0.42 | 0.42 | 87 | 1007.5 |
| 20260505203308 | 59 | 225 | 6.1 | 15.6 | 0.20 | 0.25 | 0.25 | 84 | 1007.2 |
| 20260505202242 | 61 | 158 | 0.0 | 0.0 | 0.04 | 0.09 | 0.09 | 83 | 1007.1 |
| 20260505201218 | 62 | 135 | 0.0 | 0.0 | 0.01 | 0.06 | 0.06 | 82 | 1006.9 |
| 20260505200153 | 62 | 135 | 0.0 | 0.0 | 0.00 | 0.05 | 0.05 | 81 | 1006.8 |
| 20260505195152 | 62 | 68 | 1.7 | 5.2 | 0.00 | 0.05 | 0.05 | 81 | 1006.2 |
| 20260505194135 | 62 | 45 | 3.5 | 6.1 | 0.00 | 0.05 | 0.05 | 80 | 1005.9 |
| 20260505193111 | 62 | 45 | 4.3 | 7.8 | 0.00 | 0.05 | 0.05 | 80 | 1005.7 |
| 20260505192045 | 62 | 45 | 5.2 | 8.7 | 0.00 | 0.05 | 0.05 | 80 | 1005.8 |
| 20260505191017 | 62 | 45 | 4.3 | 7.8 | 0.00 | 0.05 | 0.05 | 79 | 1005.9 |
| 20260505185956 | 62 | 23 | 3.5 | 7.0 | 0.00 | 0.05 | 0.05 | 79 | 1005.9 |
| 20260505184922 | 63 | 23 | 2.6 | 7.0 | 0.00 | 0.05 | 0.05 | 78 | 1005.9 |
| 20260505183848 | 63 | 45 | 1.7 | 6.1 | 0.00 | 0.05 | 0.05 | 78 | 1006.1 |
| 20260505181805 | 63 | 23 | 1.7 | 6.1 | 0.00 | 0.05 | 0.05 | 77 | 1006.1 |
| 20260505180805 | 64 | 23 | 2.6 | 6.1 | 0.00 | 0.05 | 0.05 | 77 | 1006.0 |
| 20260505175803 | 64 | 23 | 3.5 | 7.0 | 0.00 | 0.05 | 0.05 | 77 | 1005.9 |
| 20260505174729 | 65 | 68 | 3.5 | 7.8 | 0.00 | 0.05 | 0.05 | 76 | 1006.3 |
| 20260505173658 | 65 | 45 | 2.6 | 6.1 | 0.00 | 0.05 | 0.05 | 76 | 1006.4 |
| 20260505172640 | 65 | 68 | 2.6 | 7.0 | 0.00 | 0.05 | 0.05 | 75 | 1006.4 |
| 20260505171634 | 66 | 45 | 2.6 | 7.0 | 0.00 | 0.05 | 0.05 | 75 | 1006.4 |
| 20260505170603 | 66 | 68 | 1.7 | 6.1 | 0.00 | 0.05 | 0.05 | 74 | 1006.5 |
| 20260505165530 | 66 | 45 | 3.5 | 7.0 | 0.00 | 0.05 | 0.05 | 74 | 1006.7 |
| 20260505164508 | 66 | 45 | 2.6 | 7.8 | 0.00 | 0.05 | 0.05 | 74 | 1006.8 |
| 20260505161354 | 67 | 45 | 5.2 | 12.2 | 0.00 | 0.05 | 0.05 | 72 | 1006.7 |
| 20260505160345 | 67 | 23 | 3.5 | 7.8 | 0.00 | 0.05 | 0.05 | 73 | 1006.7 |
| 20260505153218 | 69 | 23 | 3.5 | 8.7 | 0.00 | 0.05 | 0.05 | 69 | 1007.2 |
| 20260505152144 | 69 | 0 | 3.5 | 7.8 | 0.00 | 0.05 | 0.05 | 68 | 1007.2 |
| 20260505150115 | 70 | 0 | 3.5 | 8.7 | 0.00 | 0.05 | 0.05 | 68 | 1007.4 |
| 20260505124654 | 71 | 338 | 3.5 | 6.1 | 0.00 | 0.05 | 0.05 | 69 | 1008.4 |
| 20260505123645 | 71 | 23 | 1.7 | 7.0 | 0.00 | 0.05 | 0.05 | 71 | 1008.5 |
| 20260505122613 | 71 | 338 | 0.0 | 0.0 | 0.00 | 0.05 | 0.05 | 72 | 1008.8 |
| 20260505121545 | 70 | 338 | 1.7 | 5.2 | 0.00 | 0.05 | 0.05 | 71 | 1008.8 |
| 20260505120537 | 71 | 338 | 2.6 | 7.0 | 0.00 | 0.05 | 0.05 | 72 | 1008.8 |
| 20260505115534 | 71 | 338 | 3.5 | 7.8 | 0.00 | 0.05 | 0.05 | 70 | 1008.9 |
| 20260505114524 | 71 | 0 | 4.3 | 7.0 | 0.00 | 0.05 | 0.05 | 73 | 1008.9 |
| 20260505113453 | 71 | 338 | 3.5 | 7.8 | 0.00 | 0.05 | 0.05 | 73 | 1008.9 |
| 20260505112435 | 69 | 338 | 4.3 | 7.8 | 0.00 | 0.05 | 0.05 | 77 | 1009.1 |
| 20260505111406 | 68 | 338 | 2.6 | 7.0 | 0.00 | 0.05 | 0.05 | 77 | 1009.2 |
| 20260505110344 | 67 | 338 | 0.9 | 6.1 | 0.00 | 0.05 | 0.05 | 81 | 1009.4 |
| 20260505100216 | 60 | 315 | 0.0 | 0.0 | 0.00 | 0.05 | 0.05 | 89 | 1010.0 |
| 20260505095130 | 60 | 338 | 0.0 | 0.0 | 0.00 | 0.05 | 0.05 | 89 | 1010.1 |
| 20260505094100 | 59 | 338 | 0.0 | 0.0 | 0.00 | 0.05 | 0.05 | 89 | 1010.1 |
| 20260505093034 | 59 | 23 | 0.0 | 0.0 | 0.00 | 0.05 | 0.05 | 89 | 1010.2 |
| 20260505092005 | 58 | 23 | 0.0 | 0.0 | 0.00 | 0.05 | 0.05 | 89 | 1010.1 |
| 20260505090936 | 58 | 23 | 0.0 | 0.0 | 0.00 | 0.05 | 0.05 | 89 | 1010.1 |
| 20260505084850 | 58 | 0 | 0.0 | 0.0 | 0.00 | 0.05 | 0.05 | 89 | 1010.0 |
| 20260505083815 | 58 | 0 | 0.0 | 0.0 | 0.01 | 0.05 | 0.05 | 89 | 1010.0 |
| 20260505082809 | 58 | 0 | 0.0 | 0.0 | 0.01 | 0.05 | 0.05 | 89 | 1009.9 |
| 20260505080706 | 58 | 0 | 0.0 | 0.0 | 0.01 | 0.05 | 0.05 | 89 | 1010.0 |
| 20260505074630 | 57 | 0 | 0.0 | 0.0 | 0.00 | 0.04 | 0.04 | 89 | 1010.1 |
| 20260505073605 | 57 | 0 | 0.0 | 0.0 | 0.01 | 0.04 | 0.04 | 89 | 1010.1 |
| 20260505072602 | 57 | 0 | 0.0 | 0.0 | 0.01 | 0.04 | 0.04 | 89 | 1010.1 |
| 20260505071542 | 57 | 0 | 0.0 | 0.0 | 0.01 | 0.04 | 0.04 | 89 | 1010.1 |
| 20260505070538 | 57 | 0 | 0.0 | 0.0 | 0.01 | 0.04 | 0.04 | 89 | 1010.1 |
| 20260505065532 | 57 | 338 | 0.0 | 0.0 | 0.01 | 0.04 | 0.04 | 89 | 1010.2 |
| 20260505064502 | 57 | 338 | 0.0 | 0.0 | 0.00 | 0.03 | 0.03 | 89 | 1010.3 |
| 20260505063435 | 57 | 338 | 0.0 | 0.0 | 0.02 | 0.03 | 0.03 | 89 | 1010.3 |
| 20260505062414 | 57 | 338 | 0.0 | 0.0 | 0.02 | 0.03 | 0.03 | 89 | 1010.4 |
| 20260505061356 | 57 | 338 | 0.0 | 0.0 | 0.02 | 0.03 | 0.03 | 89 | 1010.4 |
| 20260505060323 | 57 | 338 | 0.0 | 0.0 | 0.03 | 0.03 | 0.03 | 89 | 1010.4 |
| 20260505054304 | 57 | 338 | 0.0 | 0.0 | 0.02 | 0.02 | 0.02 | 89 | 1010.7 |
| 20260505052218 | 57 | 338 | 0.0 | 0.0 | 0.01 | 0.01 | 0.01 | 89 | 1010.6 |
| 20260505051144 | 56 | 338 | 0.0 | 0.0 | 0.00 | 0.00 | 0.00 | 89 | 1010.6 |
| 20260505050120 | 57 | 338 | 0.0 | 0.0 | 0.00 | 0.00 | 0.00 | 88 | 1010.6 |